Multan, Pakistan
Current Conditions -  °F | °C
As of 8:25 AM on Monday 20 Oct 2014 (Local Time) from OPLA Reporting Station
Smoke Smoke  
Wind Chill: 72°   Ceiling: Unl
Heat Index: 72°   Visibility: 2.1mi
Dew Point: 63°   Wind: 0mph
Humidity: 73%   Direction: NA
Pressure: 29.97"   Gusts: NA
Location:  30.2°N, 71.45°E
Report Text: OPLA 200325Z 00000KT 3500 FU FEW100 22/17 Q1015
Loading
Personal Weather Stations






























Interactive Weather Map
Tropical Storm Tracking
New forecast layout! Learn more

10-Day Weather Forecast

Advertisements
Track Severe Weather on mobile